createdAt,value
2023-04-20T00:01:33.304Z,2.17
2023-04-20T00:04:18.562Z,2.40
2023-04-20T00:07:03.279Z,1.90
2023-04-20T00:09:48.049Z,1.83
2023-04-20T00:12:33.096Z,2.33
2023-04-20T00:15:17.992Z,2.33
2023-04-20T00:18:03.145Z,2.10
2023-04-20T00:20:48.004Z,2.05
2023-04-20T00:23:33.180Z,2.10
2023-04-20T00:26:18.646Z,1.80
2023-04-20T00:29:03.718Z,2.42
2023-04-20T00:31:49.262Z,2.10
2023-04-20T00:34:34.117Z,2.45
2023-04-20T00:37:19.014Z,2.40
2023-04-20T00:40:04.679Z,2.15
2023-04-20T00:42:49.486Z,2.50
2023-04-20T00:45:34.556Z,2.40
2023-04-20T00:48:20.686Z,2.05
2023-04-20T00:51:05.811Z,2.17
2023-04-20T00:53:50.675Z,2.38
2023-04-20T00:56:35.549Z,1.95
2023-04-20T00:59:21.739Z,2.10
2023-04-20T01:02:07.519Z,2.25
2023-04-20T01:04:52.447Z,2.35
2023-04-20T01:07:37.597Z,2.10
2023-04-20T01:10:22.498Z,2.60
2023-04-20T01:13:07.370Z,2.30
2023-04-20T01:15:52.137Z,2.47
2023-04-20T01:18:46.425Z,1.90
2023-04-20T01:21:32.029Z,2.00
2023-04-20T01:24:17.223Z,2.17
2023-04-20T01:27:02.409Z,1.93
2023-04-20T01:29:47.518Z,2.30
2023-04-20T01:32:32.559Z,1.90
2023-04-20T01:35:17.358Z,2.20
2023-04-20T01:38:02.507Z,2.22
2023-04-20T01:40:47.424Z,2.07
2023-04-20T01:43:33.686Z,2.20
2023-04-20T01:46:18.424Z,2.08
2023-04-20T01:49:03.617Z,2.22
2023-04-20T01:51:48.544Z,1.85
2023-04-20T01:54:33.489Z,2.50
2023-04-20T01:57:18.170Z,2.20
2023-04-20T02:00:04.225Z,2.30
2023-04-20T02:02:49.130Z,2.10
2023-04-20T02:05:34.053Z,2.33
2023-04-20T02:08:19.061Z,2.20
2023-04-20T02:11:04.195Z,2.50
2023-04-20T02:13:49.174Z,2.35
2023-04-20T02:16:35.431Z,2.47
2023-04-20T02:19:21.103Z,2.17
2023-04-20T02:22:06.481Z,2.20
2023-04-20T02:24:51.353Z,2.60
2023-04-20T02:27:36.408Z,2.92
2023-04-20T02:30:21.419Z,2.50
2023-04-20T02:33:06.712Z,2.22
2023-04-20T02:35:51.891Z,2.17
2023-04-20T02:38:37.896Z,2.53
2023-04-20T02:41:23.057Z,2.08
2023-04-20T02:44:08.212Z,2.60
2023-04-20T02:46:52.986Z,2.45
2023-04-20T02:49:38.378Z,2.50
2023-04-20T02:52:23.642Z,2.35
2023-04-20T02:55:09.232Z,2.33
2023-04-20T02:57:54.294Z,2.30
2023-04-20T03:00:39.087Z,2.33
2023-04-20T03:03:24.302Z,2.30
2023-04-20T03:06:09.426Z,2.38
2023-04-20T03:08:54.566Z,2.00
2023-04-20T03:11:39.290Z,2.33
2023-04-20T03:14:24.493Z,2.55
2023-04-20T03:17:09.252Z,2.27
2023-04-20T03:19:54.430Z,2.58
2023-04-20T03:22:39.373Z,2.70
2023-04-20T03:25:24.339Z,2.45
2023-04-20T03:28:09.073Z,2.50
2023-04-20T03:30:54.084Z,2.30
2023-04-20T03:33:38.810Z,2.60
2023-04-20T03:36:24.032Z,2.50
2023-04-20T03:39:09.586Z,2.97
2023-04-20T03:41:54.584Z,2.58
2023-04-20T03:44:39.281Z,2.90
2023-04-20T03:47:24.501Z,2.92
2023-04-20T03:50:09.789Z,3.22
2023-04-20T03:52:54.865Z,3.15
2023-04-20T03:55:39.654Z,2.90
2023-04-20T03:58:24.797Z,2.53
2023-04-20T04:01:10.001Z,3.22
2023-04-20T04:03:55.338Z,2.88
2023-04-20T04:06:40.650Z,3.28
2023-04-20T04:09:28.415Z,2.60
2023-04-20T04:12:13.698Z,3.07
2023-04-20T04:14:58.946Z,2.78
2023-04-20T04:17:44.123Z,2.80
2023-04-20T04:20:29.145Z,2.42
2023-04-20T04:23:13.943Z,2.88
2023-04-20T04:25:59.071Z,2.10
2023-04-20T04:28:45.767Z,2.83
2023-04-20T04:31:32.714Z,2.30
2023-04-20T04:34:18.728Z,2.35
2023-04-20T04:37:03.785Z,2.40
2023-04-20T04:39:50.951Z,2.10
2023-04-20T04:42:36.493Z,2.08
2023-04-20T04:45:21.633Z,2.42
2023-04-20T04:48:08.819Z,2.35
2023-04-20T04:50:53.584Z,2.30
2023-04-20T04:53:38.451Z,2.57
2023-04-20T04:56:23.589Z,3.00
2023-04-20T04:59:08.578Z,3.17
2023-04-20T05:01:53.475Z,2.42
2023-04-20T05:04:38.669Z,2.78
2023-04-20T05:07:24.657Z,2.53
2023-04-20T05:10:09.767Z,2.47
2023-04-20T05:12:54.774Z,2.95
2023-04-20T05:15:39.508Z,3.03
2023-04-20T05:18:24.698Z,3.20
2023-04-20T05:21:09.664Z,3.23
2023-04-20T05:23:54.658Z,3.33
2023-04-20T05:26:39.478Z,3.42
2023-04-20T05:29:24.534Z,3.25
2023-04-20T05:32:09.524Z,3.53
2023-04-20T05:34:54.350Z,3.73
2023-04-20T05:37:39.466Z,2.92
2023-04-20T05:40:24.255Z,2.88
2023-04-20T05:43:09.011Z,3.60
2023-04-20T05:45:54.259Z,3.30
2023-04-20T05:48:39.109Z,3.10
2023-04-20T05:51:28.805Z,3.17
2023-04-20T05:54:13.664Z,3.75
2023-04-20T05:56:58.856Z,3.28
2023-04-20T05:59:44.876Z,2.90
2023-04-20T06:02:29.853Z,3.20
2023-04-20T06:05:15.476Z,3.35
2023-04-20T06:08:00.434Z,3.22
2023-04-20T06:10:45.253Z,3.33
2023-04-20T06:13:30.486Z,2.83
2023-04-20T06:16:15.405Z,3.43
2023-04-20T06:19:00.748Z,3.33
2023-04-20T06:21:46.361Z,2.95
2023-04-20T06:24:31.559Z,3.10
2023-04-20T06:27:16.757Z,2.97
2023-04-20T06:30:01.583Z,3.30
2023-04-20T06:32:46.636Z,3.20
2023-04-20T06:35:31.550Z,3.08
2023-04-20T06:38:16.369Z,3.10
2023-04-20T06:41:04.495Z,3.10
2023-04-20T06:43:49.339Z,3.20
2023-04-20T06:46:34.866Z,3.05
2023-04-20T06:49:20.063Z,3.20
2023-04-20T06:52:05.855Z,4.40
2023-04-20T06:54:50.782Z,3.92
2023-04-20T06:57:38.334Z,3.57
2023-04-20T07:00:23.377Z,3.40
2023-04-20T07:03:08.648Z,3.03
2023-04-20T07:05:53.981Z,2.80
2023-04-20T07:08:39.417Z,3.38
2023-04-20T07:11:24.600Z,3.23
2023-04-20T07:14:09.641Z,3.42
2023-04-20T07:16:54.680Z,3.38
2023-04-20T07:19:39.613Z,3.15
2023-04-20T07:22:25.403Z,3.65
2023-04-20T07:25:13.305Z,4.03
2023-04-20T07:27:58.153Z,4.43
2023-04-20T07:30:42.797Z,3.58
2023-04-20T07:33:29.698Z,4.07
2023-04-20T07:36:14.568Z,3.15
2023-04-20T07:38:59.667Z,3.70
2023-04-20T07:41:44.370Z,2.83
2023-04-20T07:44:30.185Z,4.20
2023-04-20T07:47:15.501Z,3.88
2023-04-20T07:50:00.366Z,4.00
2023-04-20T07:52:45.272Z,3.80
2023-04-20T07:55:30.515Z,4.07
2023-04-20T07:58:16.268Z,5.30
2023-04-20T08:01:01.184Z,4.78
2023-04-20T08:03:46.393Z,4.22
2023-04-20T08:06:31.869Z,5.27
2023-04-20T08:09:17.467Z,4.45
2023-04-20T08:12:02.734Z,5.07
2023-04-20T08:14:47.638Z,4.88
2023-04-20T08:17:34.188Z,5.22
2023-04-20T08:20:19.282Z,4.60
2023-04-20T08:23:04.417Z,3.70
2023-04-20T08:25:49.294Z,3.47
2023-04-20T08:28:34.407Z,3.60
2023-04-20T08:31:19.106Z,4.00
2023-04-20T08:34:04.133Z,3.87
2023-04-20T08:36:49.582Z,3.63
2023-04-20T08:39:34.721Z,4.38
2023-04-20T08:42:19.552Z,3.83
2023-04-20T08:45:04.962Z,4.28
2023-04-20T08:47:50.548Z,4.07
2023-04-20T08:50:36.868Z,3.47
2023-04-20T08:53:22.624Z,3.45
2023-04-20T08:56:07.953Z,3.00
2023-04-20T08:58:52.819Z,2.10
2023-04-20T09:01:39.437Z,1.77
2023-04-20T09:04:26.771Z,1.95
2023-04-20T09:07:20.051Z,1.30
2023-04-20T09:10:05.792Z,1.70
2023-04-20T09:12:53.946Z,2.13
2023-04-20T09:15:39.093Z,1.67
2023-04-20T09:18:24.703Z,1.70
2023-04-20T09:21:10.740Z,1.70
2023-04-20T09:24:06.364Z,1.40
2023-04-20T09:26:51.422Z,1.50
2023-04-20T09:29:36.557Z,1.00
2023-04-20T09:32:25.120Z,1.05
2023-04-20T09:35:10.188Z,1.08
2023-04-20T09:37:55.145Z,1.13
2023-04-20T09:40:40.546Z,1.10
2023-04-20T09:43:27.890Z,0.90
2023-04-20T09:46:12.845Z,1.00
2023-04-20T09:49:00.358Z,0.73
2023-04-20T09:51:45.499Z,1.02
2023-04-20T09:54:31.518Z,0.80
2023-04-20T09:57:16.745Z,1.37
2023-04-20T10:00:02.282Z,0.90
2023-04-20T10:02:48.306Z,0.88
2023-04-20T10:05:39.282Z,0.70
2023-04-20T10:08:24.372Z,1.50
2023-04-20T10:11:09.278Z,1.50
2023-04-20T10:13:55.344Z,1.45
2023-04-20T10:16:40.250Z,1.35
2023-04-20T10:19:45.310Z,1.45
2023-04-20T10:22:34.401Z,1.27
2023-04-20T10:25:22.288Z,0.80
2023-04-20T10:28:10.354Z,0.57
2023-04-20T10:30:55.254Z,0.40
2023-04-20T10:33:53.921Z,0.40
2023-04-20T10:36:39.040Z,0.55
2023-04-20T10:39:25.954Z,0.70
2023-04-20T10:42:10.683Z,0.50
2023-04-20T10:44:55.611Z,0.65
2023-04-20T10:47:41.036Z,0.68
2023-04-20T10:50:26.425Z,1.20
2023-04-20T10:53:22.061Z,0.80
2023-04-20T10:56:07.571Z,0.70
2023-04-20T10:58:53.586Z,0.93
2023-04-20T11:01:39.758Z,0.80
2023-04-20T11:04:32.261Z,0.88
2023-04-20T11:07:17.397Z,0.70
2023-04-20T11:10:02.214Z,1.25
2023-04-20T11:12:47.054Z,0.90
2023-04-20T11:15:33.450Z,0.70
2023-04-20T11:18:18.608Z,1.00
2023-04-20T11:21:03.747Z,0.73
2023-04-20T11:23:49.842Z,0.73
2023-04-20T11:26:40.380Z,1.05
2023-04-20T11:29:36.588Z,1.00
2023-04-20T11:32:21.918Z,1.42
2023-04-20T11:35:10.624Z,0.90
2023-04-20T11:37:57.461Z,1.20
2023-04-20T11:40:42.231Z,1.15
2023-04-20T11:43:27.442Z,1.13
2023-04-20T11:46:17.691Z,1.15
2023-04-20T11:49:04.032Z,1.60
2023-04-20T11:51:49.094Z,0.98
2023-04-20T11:54:34.949Z,1.02
2023-04-20T11:57:21.880Z,1.30
2023-04-20T12:00:07.814Z,1.30
2023-04-20T12:02:52.615Z,1.50
2023-04-20T12:05:37.844Z,1.60
2023-04-20T12:08:23.922Z,1.38
2023-04-20T12:11:08.745Z,1.80
2023-04-20T12:13:54.378Z,1.88
2023-04-20T12:16:39.207Z,2.37
2023-04-20T12:19:23.963Z,2.50
2023-04-20T12:22:08.942Z,1.95
2023-04-20T12:24:53.683Z,2.53
2023-04-20T12:27:38.889Z,2.40
2023-04-20T12:30:23.981Z,2.37
2023-04-20T12:33:08.840Z,2.30
2023-04-20T12:35:53.618Z,2.33
2023-04-20T12:38:38.786Z,2.10
2023-04-20T12:41:23.975Z,1.77
2023-04-20T12:44:11.474Z,1.40
2023-04-20T12:46:56.416Z,1.83
2023-04-20T12:49:41.170Z,1.88
2023-04-20T12:52:26.296Z,1.77
2023-04-20T12:55:11.123Z,1.83
2023-04-20T12:57:56.680Z,2.10
2023-04-20T13:00:43.143Z,2.47
2023-04-20T13:03:28.470Z,2.17
2023-04-20T13:06:14.617Z,2.40
2023-04-20T13:09:00.809Z,2.80
2023-04-20T13:11:46.539Z,2.73
2023-04-20T13:14:32.146Z,2.50
2023-04-20T13:17:17.612Z,2.78
2023-04-20T13:20:04.618Z,2.53
2023-04-20T13:22:57.660Z,2.92
2023-04-20T13:25:43.279Z,2.70
2023-04-20T13:28:28.134Z,2.70
2023-04-20T13:31:12.922Z,2.53
2023-04-20T13:33:58.057Z,2.45
2023-04-20T13:36:43.821Z,2.83
2023-04-20T13:39:29.065Z,1.77
2023-04-20T13:42:13.964Z,3.05
2023-04-20T13:44:59.077Z,2.72
2023-04-20T13:47:44.142Z,2.58
2023-04-20T13:50:28.975Z,2.53
2023-04-20T13:53:13.968Z,1.33
2023-04-20T13:55:59.239Z,2.15
2023-04-20T13:58:44.400Z,2.95
2023-04-20T14:01:30.653Z,1.98
2023-04-20T14:04:16.892Z,2.05
2023-04-20T14:07:02.404Z,1.73
2023-04-20T14:09:47.358Z,2.72
2023-04-20T14:12:33.677Z,2.20
2023-04-20T14:15:18.971Z,2.70
2023-04-20T14:18:03.798Z,2.05
2023-04-20T14:20:52.152Z,2.87
2023-04-20T14:23:37.419Z,2.28
2023-04-20T14:26:22.218Z,2.13
2023-04-20T14:29:07.137Z,2.03
2023-04-20T14:31:51.997Z,2.60
2023-04-20T14:34:36.908Z,1.60
2023-04-20T14:37:21.775Z,2.17
2023-04-20T14:40:07.436Z,2.17
2023-04-20T14:42:52.430Z,2.97
2023-04-20T14:45:39.686Z,2.05
2023-04-20T14:48:24.975Z,2.30
2023-04-20T14:51:09.912Z,2.25
2023-04-20T14:53:54.572Z,2.83
2023-04-20T14:56:39.684Z,2.97
2023-04-20T14:59:26.182Z,2.30
2023-04-20T15:02:11.102Z,1.80
2023-04-20T15:04:58.684Z,2.50
2023-04-20T15:07:45.614Z,2.63
2023-04-20T15:10:30.882Z,2.85
2023-04-20T15:13:16.179Z,2.38
2023-04-20T15:16:01.002Z,1.50
2023-04-20T15:18:46.389Z,1.70
2023-04-20T15:21:32.149Z,2.60
2023-04-20T15:24:18.705Z,2.53
2023-04-20T15:27:05.759Z,2.45
2023-04-20T15:29:51.460Z,3.13
2023-04-20T15:32:36.325Z,2.65
2023-04-20T15:35:21.136Z,2.70
2023-04-20T15:38:06.257Z,2.65
2023-04-20T15:40:53.882Z,2.25
2023-04-20T15:43:39.301Z,2.53
2023-04-20T15:46:26.445Z,2.80
2023-04-20T15:49:11.477Z,2.47
2023-04-20T15:51:56.304Z,3.05
2023-04-20T15:54:41.169Z,2.72
2023-04-20T15:57:26.152Z,2.73
2023-04-20T16:00:11.922Z,3.55
2023-04-20T16:02:57.138Z,1.48
2023-04-20T16:05:42.319Z,1.30
2023-04-20T16:08:27.180Z,2.35
2023-04-20T16:11:12.013Z,2.00
2023-04-20T16:13:57.740Z,2.33
2023-04-20T16:16:42.797Z,2.40
2023-04-20T16:19:28.518Z,2.30
2023-04-20T16:22:14.035Z,2.22
2023-04-20T16:24:59.246Z,2.60
2023-04-20T16:27:44.238Z,2.63
2023-04-20T16:30:29.292Z,2.30
2023-04-20T16:33:14.199Z,2.22
2023-04-20T16:36:00.281Z,2.80
2023-04-20T16:38:45.064Z,2.80
2023-04-20T16:41:30.165Z,2.80
2023-04-20T16:44:16.096Z,1.73
2023-04-20T16:47:01.913Z,2.17
2023-04-20T16:49:47.232Z,2.30
2023-04-20T16:52:32.177Z,2.43
2023-04-20T16:55:16.985Z,2.20
2023-04-20T16:58:02.161Z,2.22
2023-04-20T17:00:47.114Z,1.40
2023-04-20T17:03:32.130Z,1.67
2023-04-20T17:06:17.114Z,2.03
2023-04-20T17:09:06.665Z,1.63
2023-04-20T17:11:52.489Z,1.63
2023-04-20T17:14:37.264Z,1.83
2023-04-20T17:17:22.142Z,1.77
2023-04-20T17:20:07.980Z,2.00
2023-04-20T17:22:53.098Z,2.03
2023-04-20T17:25:38.342Z,2.20
2023-04-20T17:28:23.156Z,2.22
2023-04-20T17:31:08.216Z,2.00
2023-04-20T17:33:52.949Z,2.07
2023-04-20T17:36:37.962Z,2.90
2023-04-20T17:39:23.625Z,2.35
2023-04-20T17:42:08.533Z,3.05
2023-04-20T17:44:53.510Z,2.03
2023-04-20T17:47:38.690Z,3.00
2023-04-20T17:50:23.717Z,3.00
2023-04-20T17:53:08.529Z,2.67
2023-04-20T17:55:53.716Z,2.05
2023-04-20T17:58:38.972Z,2.10
2023-04-20T18:01:23.782Z,1.53
2023-04-20T18:04:09.416Z,2.50
2023-04-20T18:06:54.413Z,1.05
2023-04-20T18:09:39.756Z,2.20
2023-04-20T18:12:24.452Z,3.13
2023-04-20T18:15:09.937Z,2.83
2023-04-20T18:17:55.179Z,2.30
2023-04-20T18:20:40.535Z,2.85
2023-04-20T18:23:27.179Z,3.08
2023-04-20T18:26:17.191Z,2.97
2023-04-20T18:29:02.122Z,3.27
2023-04-20T18:31:47.055Z,3.03
2023-04-20T18:34:32.446Z,3.10
2023-04-20T18:37:17.574Z,3.00
2023-04-20T18:40:03.566Z,3.33
2023-04-20T18:42:48.657Z,3.53
2023-04-20T18:45:33.775Z,3.42
2023-04-20T18:48:18.626Z,3.30
2023-04-20T18:51:03.830Z,3.72
2023-04-20T18:53:48.766Z,2.90
2023-04-20T18:56:33.833Z,3.27
2023-04-20T18:59:18.631Z,3.80
2023-04-20T19:02:03.938Z,3.20
2023-04-20T19:04:50.569Z,3.22
2023-04-20T19:07:35.568Z,3.50
2023-04-20T19:10:20.552Z,3.53
2023-04-20T19:13:05.707Z,3.75
2023-04-20T19:15:50.683Z,3.72
2023-04-20T19:18:35.624Z,4.20
2023-04-20T19:21:22.049Z,4.28
2023-04-20T19:24:07.352Z,3.87
2023-04-20T19:26:52.830Z,3.70
2023-04-20T19:29:37.817Z,4.30
2023-04-20T19:32:22.845Z,4.57
2023-04-20T19:35:07.848Z,5.40
2023-04-20T19:37:52.648Z,5.40
2023-04-20T19:40:37.769Z,5.22
2023-04-20T19:43:22.752Z,5.97
2023-04-20T19:46:09.631Z,5.82
2023-04-20T19:48:54.653Z,6.15
2023-04-20T19:51:39.710Z,6.60
2023-04-20T19:54:24.578Z,5.90
2023-04-20T19:57:09.987Z,5.00
2023-04-20T19:59:54.849Z,5.15
2023-04-20T20:02:41.159Z,5.00
2023-04-20T20:05:26.280Z,5.30
2023-04-20T20:08:11.556Z,4.63
2023-04-20T20:10:56.533Z,4.78
2023-04-20T20:13:41.546Z,5.13
2023-04-20T20:16:29.231Z,5.35
2023-04-20T20:19:14.090Z,6.00
2023-04-20T20:21:58.957Z,4.90
2023-04-20T20:24:44.512Z,5.45
2023-04-20T20:27:29.537Z,4.95
2023-04-20T20:30:15.246Z,4.90
2023-04-20T20:33:00.663Z,5.63
2023-04-20T20:35:45.664Z,5.30
2023-04-20T20:38:30.977Z,5.70
2023-04-20T20:41:16.657Z,4.90
2023-04-20T20:44:02.239Z,5.35
2023-04-20T20:46:47.124Z,5.20
2023-04-20T20:49:32.149Z,5.28
2023-04-20T20:52:16.915Z,5.28
2023-04-20T20:55:02.160Z,5.10
2023-04-20T20:57:47.128Z,5.22
2023-04-20T21:00:33.252Z,5.93
2023-04-20T21:03:18.885Z,5.22
2023-04-20T21:06:03.866Z,5.20
2023-04-20T21:08:49.065Z,5.53
2023-04-20T21:11:34.051Z,6.07
2023-04-20T21:14:19.002Z,5.73
2023-04-20T21:17:04.654Z,5.95
2023-04-20T21:19:49.507Z,6.22
2023-04-20T21:22:34.366Z,6.43
2023-04-20T21:25:19.414Z,6.70
2023-04-20T21:28:04.590Z,5.80
2023-04-20T21:30:49.643Z,7.25
2023-04-20T21:33:35.637Z,5.25
2023-04-20T21:36:20.612Z,5.63
2023-04-20T21:39:05.675Z,5.25
2023-04-20T21:41:50.480Z,5.60
2023-04-20T21:44:35.584Z,6.30
2023-04-20T21:47:20.567Z,6.55
2023-04-20T21:50:06.172Z,7.38
2023-04-20T21:52:51.219Z,6.38
2023-04-20T21:55:36.189Z,7.07
2023-04-20T21:58:21.025Z,6.90
2023-04-20T22:01:06.350Z,7.10
2023-04-20T22:03:51.962Z,6.22
2023-04-20T22:06:36.625Z,6.95
2023-04-20T22:09:22.280Z,7.80
2023-04-20T22:12:08.872Z,6.80
2023-04-20T22:14:53.852Z,8.23
2023-04-20T22:17:39.792Z,7.13
2023-04-20T22:20:26.701Z,6.50
2023-04-20T22:23:11.833Z,7.23
2023-04-20T22:25:56.675Z,6.85
2023-04-20T22:28:41.697Z,6.88
2023-04-20T22:31:26.554Z,7.47
2023-04-20T22:34:11.657Z,8.05
2023-04-20T22:36:56.457Z,7.83
2023-04-20T22:39:41.525Z,7.72
2023-04-20T22:42:26.563Z,7.68
2023-04-20T22:45:11.951Z,7.10
2023-04-20T22:47:56.601Z,8.18
2023-04-20T22:50:41.718Z,8.40
2023-04-20T22:53:29.688Z,8.77
2023-04-20T22:56:14.625Z,8.57
2023-04-20T22:58:59.428Z,8.57
2023-04-20T23:01:44.196Z,8.40
2023-04-20T23:04:29.615Z,8.60
2023-04-20T23:07:14.763Z,9.60
2023-04-20T23:10:00.102Z,9.70
2023-04-20T23:12:46.746Z,9.07
2023-04-20T23:15:31.698Z,9.35
2023-04-20T23:18:16.450Z,9.60
2023-04-20T23:21:01.659Z,9.48
2023-04-20T23:23:46.327Z,9.68
2023-04-20T23:26:31.610Z,9.40
2023-04-20T23:29:16.760Z,9.48
2023-04-20T23:32:01.986Z,9.47
2023-04-20T23:34:46.860Z,9.93
2023-04-20T23:37:31.942Z,10.00
2023-04-20T23:40:16.714Z,9.82
2023-04-20T23:43:01.887Z,10.43
2023-04-20T23:45:46.669Z,10.10
2023-04-20T23:48:32.256Z,10.70
2023-04-20T23:51:17.957Z,9.95
2023-04-20T23:54:03.365Z,10.23
2023-04-20T23:56:48.322Z,11.40
2023-04-20T23:59:36.463Z,10.23
